sensor_id;sensor_type;location;lat;lon;timestamp;P1;durP1;ratioP1;P2;durP2;ratioP2
40290;SDS011;26000;48.304;13.626;2022-12-18T00:01:56;94.07;;;41.42;;
40290;SDS011;26000;48.304;13.626;2022-12-18T00:04:24;93.93;;;42.20;;
40290;SDS011;26000;48.304;13.626;2022-12-18T00:06:51;95.00;;;42.10;;
40290;SDS011;26000;48.304;13.626;2022-12-18T00:09:16;92.15;;;41.80;;
40290;SDS011;26000;48.304;13.626;2022-12-18T00:11:42;93.07;;;41.22;;
40290;SDS011;26000;48.304;13.626;2022-12-18T00:14:08;93.47;;;41.67;;
40290;SDS011;26000;48.304;13.626;2022-12-18T00:16:35;96.28;;;44.05;;
40290;SDS011;26000;48.304;13.626;2022-12-18T00:19:02;100.65;;;44.25;;
40290;SDS011;26000;48.304;13.626;2022-12-18T00:21:28;96.40;;;43.30;;
40290;SDS011;26000;48.304;13.626;2022-12-18T00:23:55;95.13;;;41.72;;
40290;SDS011;26000;48.304;13.626;2022-12-18T00:26:22;89.35;;;40.60;;
40290;SDS011;26000;48.304;13.626;2022-12-18T00:28:50;93.32;;;40.97;;
40290;SDS011;26000;48.304;13.626;2022-12-18T00:31:18;92.78;;;40.78;;
40290;SDS011;26000;48.304;13.626;2022-12-18T00:33:46;86.63;;;39.25;;
40290;SDS011;26000;48.304;13.626;2022-12-18T00:36:13;92.47;;;39.45;;
40290;SDS011;26000;48.304;13.626;2022-12-18T00:38:44;92.25;;;40.50;;
40290;SDS011;26000;48.304;13.626;2022-12-18T00:41:11;91.68;;;38.95;;
40290;SDS011;26000;48.304;13.626;2022-12-18T00:43:39;92.38;;;39.65;;
40290;SDS011;26000;48.304;13.626;2022-12-18T00:46:06;98.90;;;40.45;;
40290;SDS011;26000;48.304;13.626;2022-12-18T00:48:31;101.78;;;40.58;;
40290;SDS011;26000;48.304;13.626;2022-12-18T00:50:57;91.05;;;39.08;;
40290;SDS011;26000;48.304;13.626;2022-12-18T00:53:23;90.38;;;39.10;;
40290;SDS011;26000;48.304;13.626;2022-12-18T00:55:48;94.25;;;39.75;;
40290;SDS011;26000;48.304;13.626;2022-12-18T00:58:15;95.85;;;40.08;;
40290;SDS011;26000;48.304;13.626;2022-12-18T01:00:41;94.20;;;40.35;;
40290;SDS011;26000;48.304;13.626;2022-12-18T01:03:07;100.38;;;40.38;;
40290;SDS011;26000;48.304;13.626;2022-12-18T01:05:38;95.70;;;38.72;;
40290;SDS011;26000;48.304;13.626;2022-12-18T01:08:05;99.70;;;42.00;;
40290;SDS011;26000;48.304;13.626;2022-12-18T01:10:30;95.55;;;40.45;;
40290;SDS011;26000;48.304;13.626;2022-12-18T01:12:56;102.20;;;39.85;;
40290;SDS011;26000;48.304;13.626;2022-12-18T01:15:21;100.50;;;40.15;;
40290;SDS011;26000;48.304;13.626;2022-12-18T01:17:47;109.38;;;42.78;;
40290;SDS011;26000;48.304;13.626;2022-12-18T01:20:13;115.60;;;43.03;;
40290;SDS011;26000;48.304;13.626;2022-12-18T01:22:39;117.68;;;41.60;;
40290;SDS011;26000;48.304;13.626;2022-12-18T01:25:04;113.82;;;42.03;;
40290;SDS011;26000;48.304;13.626;2022-12-18T01:27:30;122.85;;;42.45;;
40290;SDS011;26000;48.304;13.626;2022-12-18T01:29:58;115.53;;;41.47;;
40290;SDS011;26000;48.304;13.626;2022-12-18T01:32:23;110.88;;;40.97;;
40290;SDS011;26000;48.304;13.626;2022-12-18T01:34:49;112.68;;;40.88;;
40290;SDS011;26000;48.304;13.626;2022-12-18T01:37:14;108.50;;;40.17;;
40290;SDS011;26000;48.304;13.626;2022-12-18T01:39:40;109.85;;;41.00;;
40290;SDS011;26000;48.304;13.626;2022-12-18T01:42:10;112.55;;;41.58;;
40290;SDS011;26000;48.304;13.626;2022-12-18T01:50:43;93.47;;;37.03;;
40290;SDS011;26000;48.304;13.626;2022-12-18T01:55:43;100.00;;;38.33;;
40290;SDS011;26000;48.304;13.626;2022-12-18T01:58:12;97.70;;;38.25;;
40290;SDS011;26000;48.304;13.626;2022-12-18T02:00:38;99.15;;;37.88;;
40290;SDS011;26000;48.304;13.626;2022-12-18T02:03:03;100.05;;;37.30;;
40290;SDS011;26000;48.304;13.626;2022-12-18T02:08:48;94.40;;;35.50;;
40290;SDS011;26000;48.304;13.626;2022-12-18T02:11:37;107.10;;;37.80;;
40290;SDS011;26000;48.304;13.626;2022-12-18T02:14:16;101.35;;;37.63;;
40290;SDS011;26000;48.304;13.626;2022-12-18T02:19:43;97.43;;;38.22;;
40290;SDS011;26000;48.304;13.626;2022-12-18T02:25:21;102.50;;;37.03;;
40290;SDS011;26000;48.304;13.626;2022-12-18T02:27:48;109.32;;;40.10;;
40290;SDS011;26000;48.304;13.626;2022-12-18T02:30:17;95.93;;;38.15;;
40290;SDS011;26000;48.304;13.626;2022-12-18T02:32:45;109.93;;;38.80;;
40290;SDS011;26000;48.304;13.626;2022-12-18T02:35:16;95.15;;;38.03;;
40290;SDS011;26000;48.304;13.626;2022-12-18T02:37:45;95.40;;;38.08;;
40290;SDS011;26000;48.304;13.626;2022-12-18T02:40:12;108.55;;;40.35;;
40290;SDS011;26000;48.304;13.626;2022-12-18T02:42:40;123.88;;;42.92;;
40290;SDS011;26000;48.304;13.626;2022-12-18T02:45:06;111.00;;;41.47;;
40290;SDS011;26000;48.304;13.626;2022-12-18T02:47:33;112.20;;;41.15;;
40290;SDS011;26000;48.304;13.626;2022-12-18T02:50:15;107.57;;;39.42;;
40290;SDS011;26000;48.304;13.626;2022-12-18T02:53:03;109.32;;;41.65;;
40290;SDS011;26000;48.304;13.626;2022-12-18T02:59:01;111.45;;;40.38;;
40290;SDS011;26000;48.304;13.626;2022-12-18T03:01:38;114.28;;;39.95;;
40290;SDS011;26000;48.304;13.626;2022-12-18T03:04:13;103.13;;;38.90;;
40290;SDS011;26000;48.304;13.626;2022-12-18T03:06:50;95.07;;;37.55;;
40290;SDS011;26000;48.304;13.626;2022-12-18T03:09:24;95.57;;;36.95;;
40290;SDS011;26000;48.304;13.626;2022-12-18T03:11:56;83.97;;;33.83;;
40290;SDS011;26000;48.304;13.626;2022-12-18T03:15:03;80.78;;;31.27;;
40290;SDS011;26000;48.304;13.626;2022-12-18T03:17:43;74.38;;;30.55;;
40290;SDS011;26000;48.304;13.626;2022-12-18T03:20:16;67.93;;;28.98;;
40290;SDS011;26000;48.304;13.626;2022-12-18T03:22:45;68.63;;;29.05;;
40290;SDS011;26000;48.304;13.626;2022-12-18T03:25:14;67.97;;;29.10;;
40290;SDS011;26000;48.304;13.626;2022-12-18T03:27:44;72.15;;;29.58;;
40290;SDS011;26000;48.304;13.626;2022-12-18T03:30:14;65.20;;;28.23;;
40290;SDS011;26000;48.304;13.626;2022-12-18T03:35:32;74.68;;;29.63;;
40290;SDS011;26000;48.304;13.626;2022-12-18T03:38:01;72.25;;;28.50;;
40290;SDS011;26000;48.304;13.626;2022-12-18T03:40:29;85.95;;;30.23;;
40290;SDS011;26000;48.304;13.626;2022-12-18T03:43:03;80.18;;;31.48;;
40290;SDS011;26000;48.304;13.626;2022-12-18T03:45:42;75.05;;;31.15;;
40290;SDS011;26000;48.304;13.626;2022-12-18T03:49:08;79.05;;;31.13;;
40290;SDS011;26000;48.304;13.626;2022-12-18T03:51:10;73.95;;;30.80;;
40290;SDS011;26000;48.304;13.626;2022-12-18T03:56:20;89.22;;;32.95;;
40290;SDS011;26000;48.304;13.626;2022-12-18T03:58:47;77.90;;;31.08;;
40290;SDS011;26000;48.304;13.626;2022-12-18T04:01:15;81.65;;;32.65;;
40290;SDS011;26000;48.304;13.626;2022-12-18T04:03:43;82.28;;;32.78;;
40290;SDS011;26000;48.304;13.626;2022-12-18T04:06:11;77.07;;;32.47;;
40290;SDS011;26000;48.304;13.626;2022-12-18T04:08:38;78.93;;;31.95;;
40290;SDS011;26000;48.304;13.626;2022-12-18T04:11:05;76.35;;;31.73;;
40290;SDS011;26000;48.304;13.626;2022-12-18T04:13:35;74.78;;;30.77;;
40290;SDS011;26000;48.304;13.626;2022-12-18T04:16:01;84.50;;;33.10;;
40290;SDS011;26000;48.304;13.626;2022-12-18T04:18:27;83.10;;;33.08;;
40290;SDS011;26000;48.304;13.626;2022-12-18T04:20:53;80.50;;;31.58;;
40290;SDS011;26000;48.304;13.626;2022-12-18T04:23:18;80.03;;;32.25;;
40290;SDS011;26000;48.304;13.626;2022-12-18T04:25:44;79.28;;;32.28;;
40290;SDS011;26000;48.304;13.626;2022-12-18T04:28:11;87.45;;;33.53;;
40290;SDS011;26000;48.304;13.626;2022-12-18T04:30:37;77.07;;;30.52;;
40290;SDS011;26000;48.304;13.626;2022-12-18T04:33:03;77.95;;;31.67;;
40290;SDS011;26000;48.304;13.626;2022-12-18T04:35:28;79.18;;;31.35;;
40290;SDS011;26000;48.304;13.626;2022-12-18T04:37:54;76.35;;;30.77;;
40290;SDS011;26000;48.304;13.626;2022-12-18T04:40:20;75.00;;;30.58;;
40290;SDS011;26000;48.304;13.626;2022-12-18T04:42:46;84.40;;;33.65;;
40290;SDS011;26000;48.304;13.626;2022-12-18T04:45:11;83.28;;;32.75;;
40290;SDS011;26000;48.304;13.626;2022-12-18T04:47:37;85.70;;;34.15;;
40290;SDS011;26000;48.304;13.626;2022-12-18T04:50:03;86.43;;;32.92;;
40290;SDS011;26000;48.304;13.626;2022-12-18T04:52:29;92.53;;;34.75;;
40290;SDS011;26000;48.304;13.626;2022-12-18T04:54:54;97.80;;;34.72;;
40290;SDS011;26000;48.304;13.626;2022-12-18T04:57:20;87.38;;;32.88;;
40290;SDS011;26000;48.304;13.626;2022-12-18T04:59:45;100.03;;;36.67;;
40290;SDS011;26000;48.304;13.626;2022-12-18T05:02:11;97.28;;;35.17;;
40290;SDS011;26000;48.304;13.626;2022-12-18T05:04:37;100.25;;;36.55;;
40290;SDS011;26000;48.304;13.626;2022-12-18T05:07:02;98.50;;;35.83;;
40290;SDS011;26000;48.304;13.626;2022-12-18T05:09:28;103.32;;;36.25;;
40290;SDS011;26000;48.304;13.626;2022-12-18T05:11:53;99.15;;;36.35;;
40290;SDS011;26000;48.304;13.626;2022-12-18T05:14:19;83.35;;;32.25;;
40290;SDS011;26000;48.304;13.626;2022-12-18T05:16:45;89.68;;;33.17;;
40290;SDS011;26000;48.304;13.626;2022-12-18T05:19:10;88.63;;;33.00;;
40290;SDS011;26000;48.304;13.626;2022-12-18T05:21:36;91.38;;;33.35;;
40290;SDS011;26000;48.304;13.626;2022-12-18T05:24:02;88.60;;;33.13;;
40290;SDS011;26000;48.304;13.626;2022-12-18T05:26:27;98.97;;;34.63;;
40290;SDS011;26000;48.304;13.626;2022-12-18T05:28:53;97.43;;;34.88;;
40290;SDS011;26000;48.304;13.626;2022-12-18T05:31:19;89.75;;;33.67;;
40290;SDS011;26000;48.304;13.626;2022-12-18T05:33:44;106.43;;;35.97;;
40290;SDS011;26000;48.304;13.626;2022-12-18T05:36:10;104.60;;;37.08;;
40290;SDS011;26000;48.304;13.626;2022-12-18T05:38:37;105.95;;;37.92;;
40290;SDS011;26000;48.304;13.626;2022-12-18T05:41:04;115.40;;;37.88;;
40290;SDS011;26000;48.304;13.626;2022-12-18T05:43:30;107.70;;;37.72;;
40290;SDS011;26000;48.304;13.626;2022-12-18T05:45:56;103.72;;;37.22;;
40290;SDS011;26000;48.304;13.626;2022-12-18T05:48:22;93.97;;;35.40;;
40290;SDS011;26000;48.304;13.626;2022-12-18T05:50:48;98.85;;;35.30;;
40290;SDS011;26000;48.304;13.626;2022-12-18T05:53:16;94.85;;;35.88;;
40290;SDS011;26000;48.304;13.626;2022-12-18T05:55:43;109.70;;;37.47;;
40290;SDS011;26000;48.304;13.626;2022-12-18T05:58:10;98.13;;;34.40;;
40290;SDS011;26000;48.304;13.626;2022-12-18T06:00:37;97.85;;;34.80;;
40290;SDS011;26000;48.304;13.626;2022-12-18T06:03:05;92.40;;;33.97;;
40290;SDS011;26000;48.304;13.626;2022-12-18T06:05:43;80.50;;;31.58;;
40290;SDS011;26000;48.304;13.626;2022-12-18T06:08:10;89.32;;;32.05;;
40290;SDS011;26000;48.304;13.626;2022-12-18T06:10:38;81.88;;;30.95;;
40290;SDS011;26000;48.304;13.626;2022-12-18T06:13:04;86.32;;;32.45;;
40290;SDS011;26000;48.304;13.626;2022-12-18T06:15:31;79.45;;;31.73;;
40290;SDS011;26000;48.304;13.626;2022-12-18T06:17:57;85.45;;;30.83;;
40290;SDS011;26000;48.304;13.626;2022-12-18T06:20:23;95.47;;;33.50;;
40290;SDS011;26000;48.304;13.626;2022-12-18T06:22:48;77.50;;;30.05;;
40290;SDS011;26000;48.304;13.626;2022-12-18T06:25:14;80.22;;;30.30;;
40290;SDS011;26000;48.304;13.626;2022-12-18T06:27:40;85.50;;;32.88;;
40290;SDS011;26000;48.304;13.626;2022-12-18T06:30:06;88.18;;;32.72;;
40290;SDS011;26000;48.304;13.626;2022-12-18T06:32:32;93.35;;;33.92;;
40290;SDS011;26000;48.304;13.626;2022-12-18T06:34:58;90.45;;;33.95;;
40290;SDS011;26000;48.304;13.626;2022-12-18T06:37:23;96.88;;;34.10;;
40290;SDS011;26000;48.304;13.626;2022-12-18T06:39:51;90.40;;;33.60;;
40290;SDS011;26000;48.304;13.626;2022-12-18T06:42:17;95.20;;;34.95;;
40290;SDS011;26000;48.304;13.626;2022-12-18T06:44:42;97.38;;;34.60;;
40290;SDS011;26000;48.304;13.626;2022-12-18T06:47:08;105.55;;;35.42;;
40290;SDS011;26000;48.304;13.626;2022-12-18T06:49:34;94.40;;;34.15;;
40290;SDS011;26000;48.304;13.626;2022-12-18T06:51:59;98.63;;;35.60;;
40290;SDS011;26000;48.304;13.626;2022-12-18T06:54:25;101.38;;;35.25;;
40290;SDS011;26000;48.304;13.626;2022-12-18T06:56:50;100.53;;;34.92;;
40290;SDS011;26000;48.304;13.626;2022-12-18T06:59:16;96.57;;;34.42;;
40290;SDS011;26000;48.304;13.626;2022-12-18T07:01:42;94.90;;;35.28;;
40290;SDS011;26000;48.304;13.626;2022-12-18T07:04:07;93.10;;;33.97;;
40290;SDS011;26000;48.304;13.626;2022-12-18T07:06:33;88.97;;;34.15;;
40290;SDS011;26000;48.304;13.626;2022-12-18T07:08:58;86.15;;;32.78;;
40290;SDS011;26000;48.304;13.626;2022-12-18T07:11:24;80.63;;;32.95;;
40290;SDS011;26000;48.304;13.626;2022-12-18T07:13:50;82.53;;;32.42;;
40290;SDS011;26000;48.304;13.626;2022-12-18T07:16:17;76.50;;;32.47;;
40290;SDS011;26000;48.304;13.626;2022-12-18T07:18:44;82.70;;;34.22;;
40290;SDS011;26000;48.304;13.626;2022-12-18T07:21:12;78.60;;;33.20;;
40290;SDS011;26000;48.304;13.626;2022-12-18T07:23:39;76.97;;;31.67;;
40290;SDS011;26000;48.304;13.626;2022-12-18T07:26:06;75.47;;;31.90;;
40290;SDS011;26000;48.304;13.626;2022-12-18T07:28:34;85.00;;;34.17;;
40290;SDS011;26000;48.304;13.626;2022-12-18T07:31:03;84.68;;;34.53;;
40290;SDS011;26000;48.304;13.626;2022-12-18T07:33:31;79.05;;;33.15;;
40290;SDS011;26000;48.304;13.626;2022-12-18T07:35:58;75.85;;;32.97;;
40290;SDS011;26000;48.304;13.626;2022-12-18T07:38:24;84.70;;;35.38;;
40290;SDS011;26000;48.304;13.626;2022-12-18T07:40:50;90.10;;;36.08;;
40290;SDS011;26000;48.304;13.626;2022-12-18T07:43:15;76.53;;;32.78;;
40290;SDS011;26000;48.304;13.626;2022-12-18T07:45:41;81.30;;;34.90;;
40290;SDS011;26000;48.304;13.626;2022-12-18T07:48:07;80.78;;;33.72;;
40290;SDS011;26000;48.304;13.626;2022-12-18T07:50:33;81.95;;;34.58;;
40290;SDS011;26000;48.304;13.626;2022-12-18T07:52:58;81.18;;;33.47;;
40290;SDS011;26000;48.304;13.626;2022-12-18T07:55:28;74.38;;;32.17;;
40290;SDS011;26000;48.304;13.626;2022-12-18T07:57:54;70.50;;;30.35;;
40290;SDS011;26000;48.304;13.626;2022-12-18T08:00:20;68.53;;;29.75;;
40290;SDS011;26000;48.304;13.626;2022-12-18T08:02:46;72.15;;;28.52;;
40290;SDS011;26000;48.304;13.626;2022-12-18T08:05:12;68.88;;;29.33;;
40290;SDS011;26000;48.304;13.626;2022-12-18T08:07:38;68.03;;;29.80;;
40290;SDS011;26000;48.304;13.626;2022-12-18T08:10:04;67.40;;;30.10;;
40290;SDS011;26000;48.304;13.626;2022-12-18T08:12:31;68.63;;;30.45;;
40290;SDS011;26000;48.304;13.626;2022-12-18T08:14:56;75.80;;;30.10;;
40290;SDS011;26000;48.304;13.626;2022-12-18T08:17:22;67.15;;;28.70;;
40290;SDS011;26000;48.304;13.626;2022-12-18T08:19:48;71.88;;;29.67;;
40290;SDS011;26000;48.304;13.626;2022-12-18T08:22:13;69.88;;;28.75;;
40290;SDS011;26000;48.304;13.626;2022-12-18T08:24:39;72.03;;;30.35;;
40290;SDS011;26000;48.304;13.626;2022-12-18T08:27:04;68.47;;;29.88;;
40290;SDS011;26000;48.304;13.626;2022-12-18T08:29:30;71.22;;;30.85;;
40290;SDS011;26000;48.304;13.626;2022-12-18T08:34:47;77.93;;;30.85;;
40290;SDS011;26000;48.304;13.626;2022-12-18T08:37:13;71.53;;;31.00;;
40290;SDS011;26000;48.304;13.626;2022-12-18T08:39:39;73.85;;;31.98;;
40290;SDS011;26000;48.304;13.626;2022-12-18T08:42:04;73.60;;;29.95;;
40290;SDS011;26000;48.304;13.626;2022-12-18T08:44:48;68.87;;;29.77;;
40290;SDS011;26000;48.304;13.626;2022-12-18T08:47:14;76.63;;;32.65;;
40290;SDS011;26000;48.304;13.626;2022-12-18T08:49:39;70.78;;;32.05;;
40290;SDS011;26000;48.304;13.626;2022-12-18T08:52:05;68.45;;;29.67;;
40290;SDS011;26000;48.304;13.626;2022-12-18T08:54:31;70.68;;;30.08;;
40290;SDS011;26000;48.304;13.626;2022-12-18T08:56:56;69.25;;;29.33;;
40290;SDS011;26000;48.304;13.626;2022-12-18T08:59:22;69.60;;;31.17;;
40290;SDS011;26000;48.304;13.626;2022-12-18T09:01:48;74.05;;;31.95;;
40290;SDS011;26000;48.304;13.626;2022-12-18T09:04:14;66.65;;;29.52;;
40290;SDS011;26000;48.304;13.626;2022-12-18T09:06:39;73.00;;;31.20;;
40290;SDS011;26000;48.304;13.626;2022-12-18T09:09:05;70.35;;;31.42;;
40290;SDS011;26000;48.304;13.626;2022-12-18T09:11:31;69.22;;;30.13;;
40290;SDS011;26000;48.304;13.626;2022-12-18T09:13:59;70.43;;;29.40;;
40290;SDS011;26000;48.304;13.626;2022-12-18T09:16:25;68.80;;;30.65;;
40290;SDS011;26000;48.304;13.626;2022-12-18T09:18:53;63.55;;;28.90;;
40290;SDS011;26000;48.304;13.626;2022-12-18T09:21:24;65.63;;;29.33;;
40290;SDS011;26000;48.304;13.626;2022-12-18T09:23:51;59.83;;;26.83;;
40290;SDS011;26000;48.304;13.626;2022-12-18T09:26:23;67.38;;;30.55;;
40290;SDS011;26000;48.304;13.626;2022-12-18T09:28:50;62.20;;;28.33;;
40290;SDS011;26000;48.304;13.626;2022-12-18T09:31:17;67.43;;;30.48;;
40290;SDS011;26000;48.304;13.626;2022-12-18T09:33:44;70.22;;;30.08;;
40290;SDS011;26000;48.304;13.626;2022-12-18T09:36:11;67.30;;;30.92;;
40290;SDS011;26000;48.304;13.626;2022-12-18T09:38:38;66.93;;;29.35;;
40290;SDS011;26000;48.304;13.626;2022-12-18T09:43:56;68.53;;;31.00;;
40290;SDS011;26000;48.304;13.626;2022-12-18T09:46:27;71.40;;;30.85;;
40290;SDS011;26000;48.304;13.626;2022-12-18T09:49:04;68.50;;;31.13;;
40290;SDS011;26000;48.304;13.626;2022-12-18T09:51:37;70.38;;;30.90;;
40290;SDS011;26000;48.304;13.626;2022-12-18T09:54:13;72.60;;;30.50;;
40290;SDS011;26000;48.304;13.626;2022-12-18T09:56:46;67.80;;;29.73;;
40290;SDS011;26000;48.304;13.626;2022-12-18T09:59:18;62.55;;;29.20;;
40290;SDS011;26000;48.304;13.626;2022-12-18T10:01:45;66.55;;;29.77;;
40290;SDS011;26000;48.304;13.626;2022-12-18T10:04:11;61.72;;;28.23;;
40290;SDS011;26000;48.304;13.626;2022-12-18T10:09:25;72.10;;;31.55;;
40290;SDS011;26000;48.304;13.626;2022-12-18T10:12:17;70.93;;;29.95;;
40290;SDS011;26000;48.304;13.626;2022-12-18T10:17:27;65.10;;;29.25;;
40290;SDS011;26000;48.304;13.626;2022-12-18T10:20:03;61.33;;;29.83;;
40290;SDS011;26000;48.304;13.626;2022-12-18T10:22:48;60.22;;;29.25;;
40290;SDS011;26000;48.304;13.626;2022-12-18T10:25:24;62.85;;;29.17;;
40290;SDS011;26000;48.304;13.626;2022-12-18T10:28:14;55.70;;;27.33;;
40290;SDS011;26000;48.304;13.626;2022-12-18T10:30:42;70.85;;;31.55;;
40290;SDS011;26000;48.304;13.626;2022-12-18T10:33:15;61.95;;;30.27;;
40290;SDS011;26000;48.304;13.626;2022-12-18T10:35:43;60.75;;;29.77;;
40290;SDS011;26000;48.304;13.626;2022-12-18T10:40:52;63.33;;;30.73;;
40290;SDS011;26000;48.304;13.626;2022-12-18T10:43:28;63.67;;;30.60;;
40290;SDS011;26000;48.304;13.626;2022-12-18T10:48:24;64.05;;;29.27;;
40290;SDS011;26000;48.304;13.626;2022-12-18T10:50:50;54.95;;;27.50;;
40290;SDS011;26000;48.304;13.626;2022-12-18T10:53:24;57.63;;;27.83;;
40290;SDS011;26000;48.304;13.626;2022-12-18T10:55:52;55.20;;;27.48;;
40290;SDS011;26000;48.304;13.626;2022-12-18T11:03:35;63.90;;;29.90;;
40290;SDS011;26000;48.304;13.626;2022-12-18T11:06:22;53.92;;;27.02;;
40290;SDS011;26000;48.304;13.626;2022-12-18T11:11:27;50.15;;;26.00;;
40290;SDS011;26000;48.304;13.626;2022-12-18T11:14:03;51.25;;;25.85;;
40290;SDS011;26000;48.304;13.626;2022-12-18T11:16:48;47.45;;;24.70;;
40290;SDS011;26000;48.304;13.626;2022-12-18T11:22:20;47.67;;;24.63;;
40290;SDS011;26000;48.304;13.626;2022-12-18T11:24:59;46.95;;;24.75;;
40290;SDS011;26000;48.304;13.626;2022-12-18T11:27:25;47.30;;;24.73;;
40290;SDS011;26000;48.304;13.626;2022-12-18T11:29:51;45.15;;;23.65;;
40290;SDS011;26000;48.304;13.626;2022-12-18T11:40:46;46.80;;;24.50;;
40290;SDS011;26000;48.304;13.626;2022-12-18T11:43:23;45.80;;;24.67;;
40290;SDS011;26000;48.304;13.626;2022-12-18T11:45:54;55.75;;;27.15;;
40290;SDS011;26000;48.304;13.626;2022-12-18T11:48:32;56.72;;;27.52;;
40290;SDS011;26000;48.304;13.626;2022-12-18T11:51:43;48.90;;;25.20;;
40290;SDS011;26000;48.304;13.626;2022-12-18T11:54:13;49.25;;;25.15;;
40290;SDS011;26000;48.304;13.626;2022-12-18T11:56:45;50.33;;;26.85;;
40290;SDS011;26000;48.304;13.626;2022-12-18T12:05:14;52.15;;;26.50;;
40290;SDS011;26000;48.304;13.626;2022-12-18T12:07:49;49.20;;;25.75;;
40290;SDS011;26000;48.304;13.626;2022-12-18T12:21:35;49.85;;;27.33;;
40290;SDS011;26000;48.304;13.626;2022-12-18T12:26:58;50.63;;;26.88;;
40290;SDS011;26000;48.304;13.626;2022-12-18T12:37:55;58.65;;;28.83;;
40290;SDS011;26000;48.304;13.626;2022-12-18T12:40:39;54.38;;;28.20;;
40290;SDS011;26000;48.304;13.626;2022-12-18T12:51:09;53.50;;;28.70;;
40290;SDS011;26000;48.304;13.626;2022-12-18T12:53:48;52.60;;;30.02;;
40290;SDS011;26000;48.304;13.626;2022-12-18T12:56:16;51.00;;;28.10;;
40290;SDS011;26000;48.304;13.626;2022-12-18T13:01:36;47.28;;;27.35;;
40290;SDS011;26000;48.304;13.626;2022-12-18T13:04:32;53.42;;;28.00;;
40290;SDS011;26000;48.304;13.626;2022-12-18T13:06:57;54.65;;;29.35;;
40290;SDS011;26000;48.304;13.626;2022-12-18T13:09:31;55.42;;;29.83;;
40290;SDS011;26000;48.304;13.626;2022-12-18T13:12:04;57.42;;;30.13;;
40290;SDS011;26000;48.304;13.626;2022-12-18T13:14:54;56.50;;;29.92;;
40290;SDS011;26000;48.304;13.626;2022-12-18T13:17:39;53.80;;;28.90;;
40290;SDS011;26000;48.304;13.626;2022-12-18T13:25:26;55.03;;;29.98;;
40290;SDS011;26000;48.304;13.626;2022-12-18T13:28:03;60.05;;;31.08;;
40290;SDS011;26000;48.304;13.626;2022-12-18T13:38:21;54.17;;;29.90;;
40290;SDS011;26000;48.304;13.626;2022-12-18T13:43:19;57.50;;;29.50;;
40290;SDS011;26000;48.304;13.626;2022-12-18T13:45:50;58.60;;;32.08;;
40290;SDS011;26000;48.304;13.626;2022-12-18T13:48:49;55.70;;;31.52;;
40290;SDS011;26000;48.304;13.626;2022-12-18T13:51:16;58.28;;;31.75;;
40290;SDS011;26000;48.304;13.626;2022-12-18T13:53:46;60.95;;;31.52;;
40290;SDS011;26000;48.304;13.626;2022-12-18T13:56:16;60.20;;;31.15;;
40290;SDS011;26000;48.304;13.626;2022-12-18T13:58:44;60.45;;;32.70;;
40290;SDS011;26000;48.304;13.626;2022-12-18T14:01:22;59.60;;;31.60;;
40290;SDS011;26000;48.304;13.626;2022-12-18T14:03:48;56.92;;;31.13;;
40290;SDS011;26000;48.304;13.626;2022-12-18T14:06:14;58.10;;;31.50;;
40290;SDS011;26000;48.304;13.626;2022-12-18T14:08:41;63.53;;;32.78;;
40290;SDS011;26000;48.304;13.626;2022-12-18T14:11:15;56.90;;;31.20;;
40290;SDS011;26000;48.304;13.626;2022-12-18T14:13:46;61.90;;;31.58;;
40290;SDS011;26000;48.304;13.626;2022-12-18T14:16:13;62.65;;;33.05;;
40290;SDS011;26000;48.304;13.626;2022-12-18T14:18:45;63.35;;;32.80;;
40290;SDS011;26000;48.304;13.626;2022-12-18T14:21:21;62.88;;;33.65;;
40290;SDS011;26000;48.304;13.626;2022-12-18T14:23:48;62.22;;;33.00;;
40290;SDS011;26000;48.304;13.626;2022-12-18T14:26:25;63.22;;;32.92;;
40290;SDS011;26000;48.304;13.626;2022-12-18T14:28:54;69.15;;;34.08;;
40290;SDS011;26000;48.304;13.626;2022-12-18T14:31:21;62.17;;;33.17;;
40290;SDS011;26000;48.304;13.626;2022-12-18T14:33:52;56.85;;;31.05;;
40290;SDS011;26000;48.304;13.626;2022-12-18T14:36:19;64.07;;;33.47;;
40290;SDS011;26000;48.304;13.626;2022-12-18T14:38:50;61.67;;;34.17;;
40290;SDS011;26000;48.304;13.626;2022-12-18T14:41:20;61.05;;;33.72;;
40290;SDS011;26000;48.304;13.626;2022-12-18T14:43:48;62.20;;;32.78;;
40290;SDS011;26000;48.304;13.626;2022-12-18T14:46:34;58.33;;;32.28;;
40290;SDS011;26000;48.304;13.626;2022-12-18T14:49:02;63.83;;;33.60;;
40290;SDS011;26000;48.304;13.626;2022-12-18T14:51:54;62.53;;;33.25;;
40290;SDS011;26000;48.304;13.626;2022-12-18T14:54:26;60.90;;;33.25;;
40290;SDS011;26000;48.304;13.626;2022-12-18T14:59:43;58.72;;;31.45;;
40290;SDS011;26000;48.304;13.626;2022-12-18T15:02:15;62.35;;;32.10;;
40290;SDS011;26000;48.304;13.626;2022-12-18T15:04:46;62.55;;;31.92;;
40290;SDS011;26000;48.304;13.626;2022-12-18T15:07:14;63.35;;;32.10;;
40290;SDS011;26000;48.304;13.626;2022-12-18T15:09:46;54.78;;;31.02;;
40290;SDS011;26000;48.304;13.626;2022-12-18T15:25:43;69.93;;;35.15;;
40290;SDS011;26000;48.304;13.626;2022-12-18T15:28:21;63.60;;;31.75;;
40290;SDS011;26000;48.304;13.626;2022-12-18T15:31:01;67.07;;;34.28;;
40290;SDS011;26000;48.304;13.626;2022-12-18T15:33:40;61.67;;;31.60;;
40290;SDS011;26000;48.304;13.626;2022-12-18T15:36:28;68.20;;;33.72;;
40290;SDS011;26000;48.304;13.626;2022-12-18T15:38:56;70.75;;;33.53;;
40290;SDS011;26000;48.304;13.626;2022-12-18T15:41:22;66.70;;;32.63;;
40290;SDS011;26000;48.304;13.626;2022-12-18T15:43:49;71.85;;;34.38;;
40290;SDS011;26000;48.304;13.626;2022-12-18T15:46:17;66.70;;;32.70;;
40290;SDS011;26000;48.304;13.626;2022-12-18T15:48:45;62.40;;;30.27;;
40290;SDS011;26000;48.304;13.626;2022-12-18T15:53:55;55.60;;;28.85;;
40290;SDS011;26000;48.304;13.626;2022-12-18T15:56:23;63.40;;;29.05;;
40290;SDS011;26000;48.304;13.626;2022-12-18T15:59:11;69.00;;;32.10;;
40290;SDS011;26000;48.304;13.626;2022-12-18T16:01:40;67.57;;;33.20;;
40290;SDS011;26000;48.304;13.626;2022-12-18T16:04:08;64.43;;;32.13;;
40290;SDS011;26000;48.304;13.626;2022-12-18T16:06:36;64.18;;;31.00;;
40290;SDS011;26000;48.304;13.626;2022-12-18T16:09:02;67.38;;;31.75;;
40290;SDS011;26000;48.304;13.626;2022-12-18T16:11:28;66.32;;;32.17;;
40290;SDS011;26000;48.304;13.626;2022-12-18T16:17:03;60.72;;;29.70;;
40290;SDS011;26000;48.304;13.626;2022-12-18T16:19:34;80.45;;;35.08;;
40290;SDS011;26000;48.304;13.626;2022-12-18T16:21:59;79.90;;;35.13;;
40290;SDS011;26000;48.304;13.626;2022-12-18T16:24:26;62.55;;;31.23;;
40290;SDS011;26000;48.304;13.626;2022-12-18T16:26:55;62.13;;;30.45;;
40290;SDS011;26000;48.304;13.626;2022-12-18T16:29:22;53.53;;;28.00;;
40290;SDS011;26000;48.304;13.626;2022-12-18T16:31:52;58.63;;;28.75;;
40290;SDS011;26000;48.304;13.626;2022-12-18T16:34:26;60.85;;;29.67;;
40290;SDS011;26000;48.304;13.626;2022-12-18T16:36:54;58.17;;;29.77;;
40290;SDS011;26000;48.304;13.626;2022-12-18T16:39:30;63.60;;;29.83;;